Latest Coastal Weather Observations for Cape Flattery

IDQ60701

Issued at 4:12 am EST Monday 2 February 2015 (issued every 10 minutes, with the page automatically refreshed every 10 minutes)

About coastal observations | Map of coastal stations | Coastal observations for QLD | Marine services | Other Formats
Station Details ID: 031213 Name: CAPE FLATTERY Lat: -14.97 Lon: 145.31 Height: 18.5 m
Data from the previous 72 hours. | See also: Recent months at Cape Flattery
Date/Time
EST
Temp

°C
Wind Pressure Rain
since 9am
mm
Weather Cloud Vis
km
Sea
Height
m
Swell
Dir
 
Speed
knots
Gust
knots
hPa Trend Height
m
Period
s
Dir
02/04:00am 24.2 CALM 0 0 1006.8 - 0.0 - - - - - - -
02/03:30am 24.7 WNW 1 3 1006.7 - 0.0 - - - - - - -
02/03:00am 24.9 NW 3 4 1006.6 - 0.0 - - - - - - -
02/02:30am 25.7 NW 3 4 1006.6 - 0.0 - - - - - - -
02/02:00am 25.7 NW 4 4 1006.9 - 0.0 - - - - - - -
02/01:30am 26.0 NW 2 4 1007.3 - 0.0 - - - - - - -
02/01:00am 26.6 NW 3 4 1007.8 - 0.0 - - - - - - -
02/12:30am 27.3 WNW 6 8 1008.1 - 0.0 - - - - - - -
02/12:00am 27.5 WNW 7 10 1008.6 - 0.0 - - - - - - -
 
Date/Time
EST
Temp

°C
Wind Pressure Rain
since 9am
mm
Weather Cloud Vis
km
Sea
Height
m
Swell
Dir
 
Speed
knots
Gust
knots
hPa Trend Height
m
Period
s
Dir
01/11:30pm 28.2 NNW 12 15 1009.0 - 0.0 - - - - - - -
01/11:00pm 28.0 NNW 13 19 1009.0 - 0.0 - - - - - - -
01/10:30pm 28.3 NNW 12 15 1009.0 - 0.0 - - - - - - -
01/10:00pm 28.2 N 10 14 1008.6 - 0.0 - - - - - - -
01/09:30pm 27.9 N 9 12 1008.1 - 0.0 - - - - - - -
01/09:00pm 28.0 N 10 13 1007.9 - 0.0 - - - - - - -
01/08:30pm 28.1 N 10 13 1007.3 - 0.0 - - - - - - -
01/08:00pm 28.1 N 9 13 1006.7 - 0.0 - - - - - - -
01/07:30pm 28.2 N 8 11 1006.3 - 0.0 - - - - - - -
01/07:00pm 28.6 N 8 11 1006.2 - 0.0 - - - - - - -
01/06:30pm 29.2 N 8 11 1005.8 - 0.0 - - - - - - -
01/06:00pm 29.7 N 9 13 1005.5 - 0.0 - - - - - - -
01/05:30pm 30.3 N 9 13 1005.1 - 0.0 - - - - - - -
01/05:00pm 30.7 N 10 14 1005.1 - 0.0 - - - - - - -
01/04:30pm 31.2 N 9 14 1005.0 - 0.0 - - - - - - -
01/04:00pm 31.5 NNE 9 13 1005.0 - 0.0 - - - - - - -
01/03:30pm 32.1 NE 8 10 1005.1 - 0.0 - - - - - - -
01/03:00pm 30.6 NNE 9 13 1005.4 - 0.0 - - - - - - -
01/02:30pm 31.7 N 10 14 1005.6 - 0.0 - - - - - - -
01/02:00pm 32.0 N 9 13 1005.9 - 0.0 - - - - - - -
01/01:30pm 33.1 N 8 11 1006.2 - 0.0 - - - - - - -
01/01:00pm 32.9 NE 8 10 1006.3 - 0.0 - - - - - - -
01/12:30pm 33.0 NE 6 9 1006.7 - 0.0 - - - - - - -
01/12:00pm 32.6 NNE 4 10 1007.1 - 0.0 - - - - - - -
01/11:30am 32.0 ESE 6 8 1007.4 - 0.0 - - - - - - -
01/11:00am 31.9 N 4 6 1007.9 - 0.0 - - - - - - -
01/10:30am 31.2 SE 4 5 1008.3 - 0.0 - - - - - - -
01/10:00am 30.2 SSW 3 5 1008.4 - 0.0 - - - - - - -
01/09:30am 29.9 SSW 5 8 1008.5 - 0.0 - - - - - - -
01/09:00am 28.7 WSW 5 8 1008.5 - 9.2 - - - - - - -
01/08:30am 27.9 W 7 10 1008.4 - 9.0 - - - - - - -
01/08:00am 27.1 SW 4 5 1008.1 - 9.0 - - - - - - -
01/07:30am 25.9 SSW 4 5 1008.1 - 9.0 - - - - - - -
01/07:00am 25.0 NW 4 5 1008.0 - 9.0 - - - - - - -
01/06:30am 24.0 NW 6 8 1007.7 - 9.0 - - - - - - -
01/06:00am 23.5 WNW 6 8 1007.6 - 9.0 - - - - - - -
01/05:30am 24.3 WNW 4 6 1007.4 - 9.0 - - - - - - -
01/05:00am 24.7 W 5 6 1007.1 - 9.0 - - - - - - -
01/04:30am 24.9 WNW 5 6 1006.9 - 9.0 - - - - - - -
01/04:00am 24.9 WNW 5 6 1007.0 - 9.0 - - - - - - -
01/03:30am 25.0 NW 1 4 1007.0 - 9.0 - - - - - - -
01/03:00am 24.9 CALM 0 0 1006.8 - 9.0 - - - - - - -
01/02:30am 24.9 SW 1 4 1007.0 - 9.0 - - - - - - -
01/02:00am 25.1 CALM 0 0 1007.4 - 9.0 - - - - - - -
01/01:30am 25.1 WNW 4 5 1007.7 - 9.0 - - - - - - -
01/01:00am 25.5 WNW 4 6 1008.0 - 9.0 - - - - - - -
01/12:30am 25.0 N 6 8 1008.0 - 9.0 - - - - - - -
01/12:00am 25.2 CALM 0 0 1008.4 - 9.0 - - - - - - -
 
Date/Time
EST
Temp

°C
Wind Pressure Rain
since 9am
mm
Weather Cloud Vis
km
Sea
Height
m
Swell
Dir
 
Speed
knots
Gust
knots
hPa Trend Height
m
Period
s
Dir
31/11:30pm 25.0 ESE 3 4 1008.6 - 9.0 - - - - - - -
31/11:00pm 25.1 SSE 6 9 1008.8 - 8.8 - - - - - - -
31/10:30pm 25.1 SE 13 18 1009.1 - 2.4 - - - - - - -
31/10:00pm 26.6 CALM 0 0 1008.3 - 0.4 - - - - - - -
31/09:30pm 26.7 CALM 0 0 1008.1 - 0.4 - - - - - - -
31/09:00pm 27.3 N 3 5 1008.1 - 0.4 - - - - - - -
31/08:30pm 27.0 NNE 5 7 1008.0 - 0.4 - - - - - - -
31/08:00pm 27.0 NNE 5 8 1007.4 - 0.4 - - - - - - -
31/07:30pm 26.4 N 5 7 1007.1 - 0.4 - - - - - - -
31/07:00pm 28.5 ENE 3 4 1007.1 - 0.0 - - - - - - -
31/06:30pm 28.8 CALM 0 1 1007.3 - 0.0 - - - - - - -
31/06:00pm 28.8 NE 5 8 1006.5 - 0.0 - - - - - - -
31/05:30pm 29.1 NNE 7 10 1005.6 - 0.0 - - - - - - -
31/05:00pm 30.3 NNE 7 10 1005.0 - 0.0 - - - - - - -
31/04:30pm 30.1 NE 10 14 1004.6 - 0.0 - - - - - - -
31/04:00pm 29.7 NE 7 11 1005.1 - 0.0 - - - - - - -
31/03:30pm 31.0 NE 11 15 1004.6 - 0.0 - - - - - - -
31/03:00pm 31.1 NE 10 14 1005.0 - 0.0 - - - - - - -
31/02:30pm 30.2 NNE 10 14 1005.0 - 0.0 - - - - - - -
31/02:00pm 33.0 NE 9 12 1005.7 - 0.0 - - - - - - -
31/01:30pm 32.5 ENE 8 12 1006.2 - 0.0 - - - - - - -
31/01:00pm 32.2 ENE 9 13 1006.3 - 0.0 - - - - - - -
31/12:30pm 31.9 SE 12 16 1006.5 - 0.0 - - - - - - -
31/12:00pm 31.9 ESE 11 15 1006.6 - 0.0 - - - - - - -
31/11:30am 31.7 SE 10 15 1006.9 - 0.0 - - - - - - -
31/11:00am 31.3 SSE 10 14 1007.4 - 0.0 - - - - - - -
31/10:30am 30.5 SE 9 13 1007.8 - 0.0 - - - - - - -
31/10:00am 30.3 SSE 11 15 1007.8 - 0.0 - - - - - - -
31/09:30am 30.4 SE 11 14 1007.9 - 0.0 - - - - - - -
31/09:00am 30.2 SE 10 14 1007.8 - 0.0 - - - - - - -
31/08:30am 29.8 SE 9 13 1007.9 - 0.0 - - - - - - -
31/08:00am 28.1 S 5 8 1007.9 - 0.0 - - - - - - -
31/07:30am 27.6 S 5 6 1007.8 - 0.0 - - - - - - -
31/07:00am 26.7 S 5 6 1007.3 - 0.0 - - - - - - -
31/06:30am 26.1 SSW 5 6 1007.0 - 0.0 - - - - - - -
31/06:00am 25.9 S 5 6 1006.8 - 0.0 - - - - - - -
31/05:30am 26.0 SSE 4 5 1006.5 - 0.0 - - - - - - -
31/05:00am 26.5 SW 3 4 1006.3 - 0.0 - - - - - - -
31/04:30am 26.9 WSW 4 4 1006.2 - 0.0 - - - - - - -
31/04:00am 27.3 WSW 5 6 1006.0 - 0.0 - - - - - - -
31/03:30am 28.0 NNW 5 7 1005.8 - 0.0 - - - - - - -
31/03:00am 28.0 N 5 7 1005.9 - 0.0 - - - - - - -
31/02:30am 28.1 N 6 8 1006.0 - 0.0 - - - - - - -
31/02:00am 28.2 NNW 8 11 1006.1 - 0.0 - - - - - - -
31/01:30am 28.4 NNW 8 10 1006.4 - 0.0 - - - - - - -
31/01:00am 28.2 NNW 9 13 1006.7 - 0.0 - - - - - - -
31/12:30am 28.4 NNW 10 13 1006.9 - 0.0 - - - - - - -
31/12:00am 28.5 NNW 9 14 1007.3 - 0.0 - - - - - - -
 
Date/Time
EST
Temp

°C
Wind Pressure Rain
since 9am
mm
Weather Cloud Vis
km
Sea
Height
m
Swell
Dir
 
Speed
knots
Gust
knots
hPa Trend Height
m
Period
s
Dir
30/11:30pm 28.8 NNW 8 10 1007.5 - 0.0 - - - - - - -
30/11:00pm 28.3 NNW 7 10 1007.5 - 0.0 - - - - - - -
30/10:30pm 28.2 NNW 7 8 1007.2 - 0.0 - - - - - - -
30/10:00pm 28.4 NNW 5 7 1006.9 - 0.0 - - - - - - -
30/09:30pm 28.5 N 5 8 1006.6 - 0.0 - - - - - - -
30/09:00pm 28.3 CALM 0 3 1006.4 - 0.0 - - - - - - -
30/08:30pm 28.3 N 6 10 1006.1 - 0.0 - - - - - - -
30/08:00pm 28.7 N 7 11 1006.0 - 0.0 - - - - - - -
30/07:30pm 28.7 N 6 9 1005.6 - 0.0 - - - - - - -
30/07:00pm 28.8 N 6 8 1005.6 - 0.0 - - - - - - -
30/06:30pm 28.9 NNW 7 10 1005.2 - 0.0 - - - - - - -
30/06:00pm 29.3 N 7 10 1005.0 - 0.0 - - - - - - -
30/05:30pm 30.1 NNE 7 9 1004.5 - 0.0 - - - - - - -
30/05:00pm 30.9 NNE 7 11 1004.0 - 0.0 - - - - - - -
30/04:30pm 31.1 N 8 11 1003.9 - 0.0 - - - - - - -
30/04:00pm 31.3 N 9 12 1003.7 - 0.0 - - - - - - -
30/03:30pm 31.8 N 9 11 1003.7 - 0.0 - - - - - - -
30/03:00pm 32.3 N 10 13 1003.7 - 0.0 - - - - - - -
30/02:30pm 32.7 NNE 8 14 1004.1 - 0.0 - - - - - - -
30/02:00pm 32.1 NNE 10 14 1004.4 - 0.0 - - - - - - -
30/01:30pm 33.4 ENE 9 12 1004.3 - 0.0 - - - - - - -
30/01:00pm 33.4 SE 10 14 1004.6 - 0.0 - - - - - - -
30/12:30pm 32.6 SE 12 16 1004.8 - 0.0 - - - - - - -
30/12:00pm 33.2 SE 12 15 1005.2 - 0.0 - - - - - - -
30/11:30am 34.0 SE 10 13 1005.5 - 0.0 - - - - - - -
30/11:00am 33.6 SE 10 13 1005.8 - 0.0 - - - - - - -
30/10:30am 33.2 SSE 8 11 1006.1 - 0.0 - - - - - - -
30/10:00am 33.0 WSW 9 13 1006.4 - 0.0 - - - - - - -
30/09:30am 31.9 SW 11 14 1006.4 - 0.0 - - - - - - -
30/09:00am 31.1 SW 11 15 1006.3 - 0.0 - - - - - - -
30/08:30am 30.3 WSW 8 11 1006.3 - 0.0 - - - - - - -
30/08:00am 29.2 SW 6 9 1006.2 - 0.0 - - - - - - -
30/07:30am 27.9 SW 1 4 1006.0 - 0.0 - - - - - - -
30/07:00am 26.6 CALM 0 0 1005.7 - 0.0 - - - - - - -
30/06:30am 25.5 CALM 0 2 1005.5 - 0.0 - - - - - - -
30/06:00am 25.5 W 3 4 1005.1 - 0.0 - - - - - - -
30/05:30am 26.1 WNW 5 6 1004.7 - 0.0 - - - - - - -
30/05:00am 26.4 NW 7 9 1004.5 - 0.0 - - - - - - -
30/04:30am 26.3 NW 7 9 1004.3 - 0.0 - - - - - - -

Other Formats:

Comma delimited format used in spreadsheet applications
http://www.bom.gov.au/fwo/IDQ60701/IDQ60701.94188.axf

JavaScript Object Notation format (JSON) in row-major order
http://www.bom.gov.au/fwo/IDQ60701/IDQ60701.94188.json